Big Elk, Kansas
Current Conditions -  °F | °C
As of 12:53 AM on Saturday 29 Nov 2014 (Local Time) from KJLN Reporting Station
Clear Clear  
Wind Chill: 54°   Ceiling: Unl
Heat Index: 54°   Visibility: 10mi
Dew Point: 46°   Wind: 13mph
Humidity: 75%   Direction: 190°S
Pressure: 29.81"   Gusts: NA
Location:  37.0595°N, 94.7764°W
Report Text: KJLN 290653Z AUTO 19011KT 10SM CLR 12/08 A2981 RMK AO2 SLP090 T01220078
Loading
Personal Weather Stations






























Interactive Weather Map New forecast layout! Learn more

10-Day Weather Forecast

Advertisements
Track Severe Weather on mobile